Aérodrome :
LOGIN :

S'inscrire | Disclaimer

   EN    FR    IT 

 










Légende :    VFR   VFR Marginal   IFR   IFR Intensif   IFR Très Intensif
Visi : 
Plafond : 
>= 8 km
>= 3000ft
5 à 8 km
1000 à 3000 ft
1500m à 5 km
500 à 1000 ft
800 à 1500m
200 à 500 ft
< 800m
< 200 ft
Symboles :   Orages  Brouillard  Fortes neiges  Fortes précipitations  Vent > 20 kt
SIGMETs :   Divers  Orages  Givrage  Turbulence  Onde Orograph.  Cendres Volcan.






- Altitude de l'aérodrome : 13 ft
- Code IATA : OST


EBOS - Oostend bruges Int.

DERNIER METAR :
  • 291750Z 23009KT 9999 SCT008 BKN011 06/04 Q1023 TEMPO BKN008

METARs EXPIRÉS :
  • 291720Z 23010KT 9999 SCT009 BKN012 06/04 Q1024 TEMPO BKN008
  • 291650Z 22010KT 9999 SCT012 BKN036 05/04 Q1024 TEMPO BKN011
  • 291620Z 22011KT 9999 BKN011 BKN016 05/04 Q1024 NOSIG
  • 291550Z 22010KT 9999 BKN013 05/03 Q1024 NOSIG
  • 291520Z 22010KT 9999 BKN014 05/03 Q1024 NOSIG

TAF TAF EBOS
Valide du 29 à 18h jusqu'au 31 à 00h UTC


291720Z 2918/3024 23010KT 9999 BKN020
TEMPO 2918/3006 BKN012
PROB40
TEMPO 2919/3005 24018G30KT 4000 -RADZ BKN008
BECMG 3005/3007 30017KT
PROB30
TEMPO 3007/3015 30017G27KT
BECMG 3018/3020 30006KT



MET'MAP, la Météo Aéronautique d'un coup d'oeil ! - Copyright ORBIFLY Décembre 2007 - Disclaimer

ORBIFLY MET'MAP TEAM :

Programmation & Développement : Alexandra Zaïnal
Sur une idée originale de : Baudouin d'Aumeries
Soutien technique & logistique : Manuel Goepfert
Assistance : Marc-Olivier Méhu




SOURCES & CREDITS :

   NOAA